Time;durP1;ratioP1;P1;durP2;ratioP2;P2;SDS_P1;SDS_P2;PMS_P1;PMS_P2;Temp;Humidity;BMP_temperature;BMP_pressure;BME280_temperature;BME280_humidity;BME280_pressure;Samples;Min_cycle;Max_cycle;Signal;HPM_P1;HPM_P2
2021/05/18 00:02:07;;;;;;;7.57;4.53;;;;;;;;;;6216921;23;20355;-84
2021/05/18 00:04:33;;;;;;;5.32;4.20;;;;;;;;;;6216544;23;20345;-85
2021/05/18 00:06:59;;;;;;;5.45;4.60;;;;;;;;;;6243095;23;20329;-84
2021/05/18 00:12:10;;;;;;;5.87;4.70;;;;;;;;;;6243726;23;20675;-84
2021/05/18 00:14:36;;;;;;;4.75;4.35;;;;;;;;;;6216228;23;20459;-84
2021/05/18 00:17:02;;;;;;;4.72;4.25;;;;;;;;;;6242963;23;20335;-83
2021/05/18 00:19:30;;;;;;;7.38;4.47;;;;;;;;;;6243111;23;20391;-84
2021/05/18 00:21:56;;;;;;;6.77;4.50;;;;;;;;;;6216604;23;20351;-85
2021/05/18 00:24:22;;;;;;;5.85;4.75;;;;;;;;;;6243791;23;20339;-84
2021/05/18 00:26:48;;;;;;;6.82;5.20;;;;;;;;;;6242978;23;20337;-85
2021/05/18 00:29:15;;;;;;;6.57;4.97;;;;;;;;;;6216817;23;20340;-84
2021/05/18 00:31:41;;;;;;;7.68;5.10;;;;;;;;;;6216125;23;20371;-84
2021/05/18 00:34:07;;;;;;;5.15;4.63;;;;;;;;;;6216949;23;20802;-83
2021/05/18 00:36:33;;;;;;;5.28;4.25;;;;;;;;;;6242891;23;20371;-84
2021/05/18 00:38:59;;;;;;;4.97;4.57;;;;;;;;;;6243649;23;20341;-84
2021/05/18 00:41:25;;;;;;;5.65;4.95;;;;;;;;;;6216581;23;20345;-84
2021/05/18 00:43:51;;;;;;;7.88;4.88;;;;;;;;;;6243369;23;20336;-84
2021/05/18 00:46:18;;;;;;;5.40;4.90;;;;;;;;;;6242620;23;20343;-84
2021/05/18 00:48:56;;;;;;;5.37;4.87;;;;;;;;;;6243457;23;20394;-85
2021/05/18 00:51:22;;;;;;;5.30;4.20;;;;;;;;;;6216255;23;20344;-84
2021/05/18 00:53:49;;;;;;;5.88;4.60;;;;;;;;;;6216414;23;20368;-84
2021/05/18 00:59:02;;;;;;;8.05;4.57;;;;;;;;;;6242868;22;20705;-84
2021/05/18 01:01:28;;;;;;;5.30;4.80;;;;;;;;;;6215879;23;20398;-84
2021/05/18 01:03:54;;;;;;;6.38;5.00;;;;;;;;;;6242370;23;20675;-84
2021/05/18 01:06:25;;;;;;;4.50;4.10;;;;;;;;;;6242449;23;20360;-85
2021/05/18 01:08:53;;;;;;;4.70;4.30;;;;;;;;;;6243151;23;20340;-84
2021/05/18 01:11:21;;;;;;;5.10;4.47;;;;;;;;;;6242513;23;20472;-84
2021/05/18 01:13:47;;;;;;;4.82;4.38;;;;;;;;;;6243121;23;20390;-85
2021/05/18 01:16:13;;;;;;;5.22;4.72;;;;;;;;;;6215987;23;20903;-85
2021/05/18 01:18:41;;;;;;;4.40;4.00;;;;;;;;;;6243072;23;20379;-84
2021/05/18 01:21:07;;;;;;;5.10;4.43;;;;;;;;;;6216141;23;20402;-84
2021/05/18 01:23:33;;;;;;;4.75;4.15;;;;;;;;;;6242733;23;20364;-84
2021/05/18 01:25:59;;;;;;;5.50;4.40;;;;;;;;;;6241446;23;20803;-84
2021/05/18 01:28:26;;;;;;;6.65;4.35;;;;;;;;;;6215105;23;20337;-84
2021/05/18 01:30:52;;;;;;;5.45;4.38;;;;;;;;;;6214980;23;20345;-84
2021/05/18 01:33:18;;;;;;;6.43;4.13;;;;;;;;;;6242041;23;20329;-84
2021/05/18 01:35:45;;;;;;;5.25;4.10;;;;;;;;;;6241436;23;20368;-83
2021/05/18 01:38:14;;;;;;;6.03;4.50;;;;;;;;;;6242252;23;20344;-84
2021/05/18 01:43:07;;;;;;;5.30;4.13;;;;;;;;;;6241460;23;20375;-83
2021/05/18 01:45:34;;;;;;;4.82;4.43;;;;;;;;;;6214060;23;20663;-84
2021/05/18 01:48:02;;;;;;;4.50;4.10;;;;;;;;;;6241556;23;20336;-84
2021/05/18 01:50:29;;;;;;;5.10;4.23;;;;;;;;;;6241160;23;20825;-83
2021/05/18 01:52:55;;;;;;;4.85;4.20;;;;;;;;;;6241405;23;20333;-84
2021/05/18 01:55:35;;;;;;;6.18;4.72;;;;;;;;;;6241137;23;20365;-84
2021/05/18 01:58:01;;;;;;;5.07;4.63;;;;;;;;;;6240723;22;20567;-83
2021/05/18 02:00:28;;;;;;;4.60;4.20;;;;;;;;;;6241537;23;20419;-84
2021/05/18 02:02:55;;;;;;;5.80;4.47;;;;;;;;;;6214349;23;20435;-83
2021/05/18 02:05:22;;;;;;;6.10;4.47;;;;;;;;;;6213499;23;20431;-83
2021/05/18 02:07:49;;;;;;;5.05;4.55;;;;;;;;;;6214083;23;20345;-84
2021/05/18 02:10:16;;;;;;;5.28;4.32;;;;;;;;;;6241153;23;20360;-84
2021/05/18 02:12:42;;;;;;;5.45;4.70;;;;;;;;;;6241269;23;20343;-84
2021/05/18 02:21:03;;;;;;;5.33;4.27;;;;;;;;;;6240810;23;20368;-85
2021/05/18 02:26:14;;;;;;;4.50;4.10;;;;;;;;;;6240640;23;20395;-84
2021/05/18 02:28:40;;;;;;;4.95;3.92;;;;;;;;;;6213797;23;20360;-84
2021/05/18 02:31:06;;;;;;;5.38;4.20;;;;;;;;;;6242642;23;20427;-85
2021/05/18 02:33:32;;;;;;;5.27;4.30;;;;;;;;;;6215403;23;20344;-85
2021/05/18 02:35:58;;;;;;;4.63;4.05;;;;;;;;;;6241238;23;20360;-85
2021/05/18 02:38:24;;;;;;;4.45;4.10;;;;;;;;;;6215147;23;20406;-84
2021/05/18 02:40:50;;;;;;;6.05;4.78;;;;;;;;;;6242209;23;20340;-84
2021/05/18 02:43:23;;;;;;;5.90;4.60;;;;;;;;;;6242082;23;20348;-85
2021/05/18 02:51:18;;;;;;;5.75;4.53;;;;;;;;;;6242311;23;20362;-84
2021/05/18 02:53:44;;;;;;;6.35;4.45;;;;;;;;;;6242052;23;20807;-84
2021/05/18 02:56:22;;;;;;;6.18;3.92;;;;;;;;;;6241627;23;20688;-86
2021/05/18 02:59:07;;;;;;;7.50;4.30;;;;;;;;;;6241818;23;20478;-85
2021/05/18 03:01:34;;;;;;;7.30;4.28;;;;;;;;;;6242285;23;20359;-84
2021/05/18 03:04:00;;;;;;;5.40;4.03;;;;;;;;;;6214789;23;20344;-84
2021/05/18 03:06:26;;;;;;;6.47;4.40;;;;;;;;;;6241191;23;20345;-84
2021/05/18 03:08:52;;;;;;;4.63;3.92;;;;;;;;;;6214258;23;20352;-84
2021/05/18 03:11:18;;;;;;;5.40;4.03;;;;;;;;;;6241944;23;20340;-84
2021/05/18 03:13:44;;;;;;;4.93;4.43;;;;;;;;;;6213916;23;20336;-84
2021/05/18 03:16:10;;;;;;;12.73;4.93;;;;;;;;;;6214062;23;20494;-84
2021/05/18 03:18:36;;;;;;;14.13;5.03;;;;;;;;;;6214728;23;20799;-85
2021/05/18 03:21:03;;;;;;;18.88;6.13;;;;;;;;;;6241519;23;20332;-86
2021/05/18 03:23:29;;;;;;;11.93;5.35;;;;;;;;;;6214565;23;20356;-85
2021/05/18 03:25:55;;;;;;;6.22;5.32;;;;;;;;;;6214640;23;20352;-85
2021/05/18 03:28:22;;;;;;;8.80;4.63;;;;;;;;;;6242879;23;20419;-84
2021/05/18 03:31:08;;;;;;;6.13;4.32;;;;;;;;;;6243492;23;20383;-85
2021/05/18 03:36:19;;;;;;;4.32;3.92;;;;;;;;;;6243517;23;20382;-85
2021/05/18 03:38:49;;;;;;;4.80;4.05;;;;;;;;;;6243923;23;20390;-84
2021/05/18 03:41:44;;;;;;;5.70;3.88;;;;;;;;;;6243337;23;20379;-84
2021/05/18 03:52:23;;;;;;;4.95;3.90;;;;;;;;;;6229045;23;20337;-85
2021/05/18 03:55:01;;;;;;;20.83;4.95;;;;;;;;;;6243031;23;20459;-86
2021/05/18 04:03:17;;;;;;;3.97;3.58;;;;;;;;;;6243775;23;20362;-84
2021/05/18 04:19:11;;;;;;;5.28;4.00;;;;;;;;;;6243581;23;20471;-84
2021/05/18 05:07:02;;;;;;;8.73;6.77;;;;;;;;;;6252755;23;20574;-85
2021/05/18 05:09:41;;;;;;;9.40;7.63;;;;;;;;;;6243312;23;20344;-85
2021/05/18 05:14:51;;;;;;;11.27;7.85;;;;;;;;;;6251847;23;20372;-84
2021/05/18 05:17:17;;;;;;;9.82;8.02;;;;;;;;;;6214401;23;20652;-83
2021/05/18 05:19:44;;;;;;;8.32;7.45;;;;;;;;;;6241998;23;20339;-85
2021/05/18 05:22:10;;;;;;;8.35;7.40;;;;;;;;;;6214778;23;20343;-84
2021/05/18 05:24:37;;;;;;;9.73;8.20;;;;;;;;;;6242195;23;20333;-84
2021/05/18 05:27:03;;;;;;;8.93;8.13;;;;;;;;;;6214777;23;20375;-83
2021/05/18 05:29:29;;;;;;;8.75;7.85;;;;;;;;;;6241902;23;20343;-83
2021/05/18 05:31:56;;;;;;;10.80;7.90;;;;;;;;;;6241851;23;20340;-84
2021/05/18 05:34:22;;;;;;;10.13;8.95;;;;;;;;;;6241760;23;20364;-83
2021/05/18 05:36:48;;;;;;;11.57;8.30;;;;;;;;;;6241708;23;20458;-83
2021/05/18 05:39:24;;;;;;;10.90;9.50;;;;;;;;;;6242441;23;20806;-83
2021/05/18 05:41:54;;;;;;;10.07;8.70;;;;;;;;;;6242317;23;20349;-85
2021/05/18 05:44:21;;;;;;;12.77;9.85;;;;;;;;;;6215131;23;20439;-84
2021/05/18 05:46:47;;;;;;;10.63;9.35;;;;;;;;;;6241678;23;20332;-85
2021/05/18 05:49:13;;;;;;;12.00;9.85;;;;;;;;;;6215431;23;20490;-85
2021/05/18 05:51:39;;;;;;;12.63;10.63;;;;;;;;;;6215007;23;20360;-84
2021/05/18 05:54:05;;;;;;;10.70;9.60;;;;;;;;;;6241270;23;20336;-85
2021/05/18 05:56:31;;;;;;;11.97;10.77;;;;;;;;;;6214077;23;20442;-85
2021/05/18 05:59:02;;;;;;;12.52;11.23;;;;;;;;;;6241186;23;20351;-84
2021/05/18 06:01:29;;;;;;;13.80;12.00;;;;;;;;;;6242219;23;20398;-84
2021/05/18 06:03:55;;;;;;;14.60;13.05;;;;;;;;;;6242099;23;20398;-84
2021/05/18 06:06:21;;;;;;;14.80;13.20;;;;;;;;;;6242017;23;20386;-84
2021/05/18 06:08:48;;;;;;;17.93;13.30;;;;;;;;;;6242160;23;20427;-84
2021/05/18 06:43:35;;;;;;;17.63;15.82;;;;;;;;;;6242092;23;20394;-84
2021/05/18 06:48:27;;;;;;;17.75;15.90;;;;;;;;;;6242246;23;20344;-85
2021/05/18 06:50:53;;;;;;;18.30;16.00;;;;;;;;;;6214795;23;20398;-85
2021/05/18 06:53:19;;;;;;;20.55;16.60;;;;;;;;;;6243074;23;20393;-85
2021/05/18 06:55:48;;;;;;;19.15;16.48;;;;;;;;;;6250633;23;20374;-82
2021/05/18 06:58:18;;;;;;;18.75;16.65;;;;;;;;;;6225610;22;20726;-83
2021/05/18 07:00:46;;;;;;;19.02;16.67;;;;;;;;;;6220929;23;21006;-83
2021/05/18 07:03:17;;;;;;;18.55;16.67;;;;;;;;;;6220189;23;20372;-84
2021/05/18 07:10:39;;;;;;;18.45;16.45;;;;;;;;;;6241350;23;20435;-81
2021/05/18 07:13:05;;;;;;;19.83;17.77;;;;;;;;;;6240235;23;20336;-81
2021/05/18 07:15:31;;;;;;;20.80;17.55;;;;;;;;;;6219176;23;20368;-86
2021/05/18 07:17:57;;;;;;;19.07;15.97;;;;;;;;;;6244156;23;20336;-84
2021/05/18 07:20:23;;;;;;;19.77;17.20;;;;;;;;;;6241433;23;20344;-84
2021/05/18 07:22:53;;;;;;;20.65;18.55;;;;;;;;;;6212792;23;20344;-87
2021/05/18 07:25:21;;;;;;;20.50;17.70;;;;;;;;;;6241697;23;20697;-85
2021/05/18 07:27:46;;;;;;;20.52;18.20;;;;;;;;;;6240207;23;20340;-86
2021/05/18 07:30:13;;;;;;;20.88;18.17;;;;;;;;;;6240846;23;20809;-87
2021/05/18 07:32:39;;;;;;;20.50;17.42;;;;;;;;;;6241081;23;20446;-86
2021/05/18 07:35:07;;;;;;;18.33;13.43;;;;;;;;;;6240752;23;20772;-88
2021/05/18 07:37:34;;;;;;;10.70;8.17;;;;;;;;;;6241453;23;20829;-79
2021/05/18 07:40:00;;;;;;;8.15;6.78;;;;;;;;;;6240532;23;20347;-85
2021/05/18 07:42:26;;;;;;;9.35;7.35;;;;;;;;;;6244175;23;20340;-82
2021/05/18 07:44:52;;;;;;;10.57;8.18;;;;;;;;;;6218372;23;21103;-82
2021/05/18 07:47:20;;;;;;;10.07;8.98;;;;;;;;;;6244955;23;20446;-81
2021/05/18 07:49:51;;;;;;;11.60;9.57;;;;;;;;;;6245329;23;20336;-83
2021/05/18 08:00:57;;;;;;;15.15;13.02;;;;;;;;;;6202748;23;20364;-81
2021/05/18 08:06:10;;;;;;;14.65;13.20;;;;;;;;;;6243730;23;20363;-78
2021/05/18 08:08:37;;;;;;;15.03;13.47;;;;;;;;;;6221835;23;20344;-80
2021/05/18 08:11:03;;;;;;;15.00;13.30;;;;;;;;;;6244138;23;20368;-83
2021/05/18 08:13:30;;;;;;;15.02;13.02;;;;;;;;;;6241727;23;20359;-84
2021/05/18 09:02:02;;;;;;;26.20;18.38;;;;;;;;;;6185486;23;20679;-85
2021/05/18 09:47:57;;;;;;;24.30;18.52;;;;;;;;;;6185524;23;20348;-81
2021/05/18 10:25:35;;;;;;;18.08;14.02;;;;;;;;;;6231942;23;20343;-78
2021/05/18 10:35:36;;;;;;;18.83;15.25;;;;;;;;;;6233820;23;20438;-76
2021/05/18 10:38:06;;;;;;;18.38;14.90;;;;;;;;;;6230757;23;21336;-77
2021/05/18 10:40:36;;;;;;;19.83;15.13;;;;;;;;;;6232799;23;20332;-79
2021/05/18 10:43:05;;;;;;;18.08;14.07;;;;;;;;;;6229486;23;20341;-77
2021/05/18 10:45:50;;;;;;;16.08;12.10;;;;;;;;;;6206446;23;20756;-77
2021/05/18 10:48:16;;;;;;;15.38;11.90;;;;;;;;;;6233552;23;20397;-78
2021/05/18 10:50:42;;;;;;;13.00;11.15;;;;;;;;;;6233724;23;20423;-78
2021/05/18 10:53:24;;;;;;;16.52;11.57;;;;;;;;;;6233734;23;20341;-76
2021/05/18 10:56:13;;;;;;;14.25;10.40;;;;;;;;;;6231947;23;20848;-79
2021/05/18 10:58:39;;;;;;;11.73;9.52;;;;;;;;;;6215673;23;20395;-78
2021/05/18 11:01:05;;;;;;;13.15;10.38;;;;;;;;;;6206603;23;20336;-79
2021/05/18 11:03:33;;;;;;;13.68;9.55;;;;;;;;;;6232873;23;20343;-79
2021/05/18 11:06:06;;;;;;;13.48;8.90;;;;;;;;;;6232757;23;20423;-77
2021/05/18 11:08:34;;;;;;;14.30;9.38;;;;;;;;;;6206039;23;20445;-79
2021/05/18 11:11:00;;;;;;;13.97;8.73;;;;;;;;;;6206095;23;20344;-80
2021/05/18 11:13:26;;;;;;;10.98;8.15;;;;;;;;;;6233946;23;20398;-77
2021/05/18 11:15:52;;;;;;;10.77;8.18;;;;;;;;;;6234063;23;21034;-79
2021/05/18 11:18:18;;;;;;;11.65;7.82;;;;;;;;;;6234737;23;20348;-77
2021/05/18 11:23:23;;;;;;;8.77;6.23;;;;;;;;;;6235789;23;20340;-79
2021/05/18 11:26:04;;;;;;;7.97;5.57;;;;;;;;;;6201943;23;20432;-81
2021/05/18 11:28:36;;;;;;;11.70;6.37;;;;;;;;;;6231687;23;20336;-79
2021/05/18 11:31:04;;;;;;;9.05;5.82;;;;;;;;;;6230398;23;20348;-79
2021/05/18 11:33:31;;;;;;;8.30;4.80;;;;;;;;;;6205664;23;21158;-80
2021/05/18 11:36:05;;;;;;;7.50;4.60;;;;;;;;;;6233141;23;21089;-80
2021/05/18 11:38:34;;;;;;;8.70;4.77;;;;;;;;;;6233085;23;20718;-79
2021/05/18 11:41:00;;;;;;;8.02;4.88;;;;;;;;;;6232796;23;20336;-79
2021/05/18 11:43:37;;;;;;;6.82;4.72;;;;;;;;;;6233545;23;20383;-80
2021/05/18 11:46:03;;;;;;;7.00;4.90;;;;;;;;;;6202793;23;20738;-80
2021/05/18 11:48:29;;;;;;;10.68;5.10;;;;;;;;;;6233967;23;20374;-79
2021/05/18 11:51:22;;;;;;;6.72;4.07;;;;;;;;;;6207972;23;20885;-79
2021/05/18 11:53:49;;;;;;;6.78;4.00;;;;;;;;;;6229316;23;20344;-80
2021/05/18 11:56:27;;;;;;;5.15;3.60;;;;;;;;;;6208712;23;20408;-79
2021/05/18 11:59:02;;;;;;;6.25;3.75;;;;;;;;;;6209381;23;20364;-79
2021/05/18 12:01:28;;;;;;;5.90;3.78;;;;;;;;;;6208405;23;20359;-80
2021/05/18 12:04:05;;;;;;;5.80;3.25;;;;;;;;;;6237192;23;20343;-82
2021/05/18 12:06:34;;;;;;;5.20;2.92;;;;;;;;;;6236978;23;20427;-81
2021/05/18 12:09:00;;;;;;;4.75;2.70;;;;;;;;;;6210362;23;20767;-80
2021/05/18 12:11:26;;;;;;;6.75;3.13;;;;;;;;;;6238193;23;20413;-80
2021/05/18 12:13:52;;;;;;;7.45;3.20;;;;;;;;;;6236595;23;20865;-79
2021/05/18 12:16:19;;;;;;;5.57;3.20;;;;;;;;;;6235521;23;20524;-79
2021/05/18 12:18:50;;;;;;;5.75;3.55;;;;;;;;;;6237275;23;20348;-79
2021/05/18 12:21:21;;;;;;;7.15;3.60;;;;;;;;;;6237330;23;20339;-81
2021/05/18 12:24:05;;;;;;;7.20;3.93;;;;;;;;;;6237009;23;20824;-81
2021/05/18 12:26:31;;;;;;;5.95;3.35;;;;;;;;;;6209301;23;20439;-81
2021/05/18 12:28:59;;;;;;;7.65;3.65;;;;;;;;;;6210146;23;20340;-79
2021/05/18 12:31:29;;;;;;;7.32;3.20;;;;;;;;;;6236382;23;20355;-79
2021/05/18 12:33:55;;;;;;;6.93;3.72;;;;;;;;;;6209979;23;20596;-83
2021/05/18 12:36:21;;;;;;;7.75;4.10;;;;;;;;;;6209466;23;20372;-82
2021/05/18 12:39:06;;;;;;;6.28;3.50;;;;;;;;;;6235996;23;20386;-81
2021/05/18 12:41:52;;;;;;;8.25;4.57;;;;;;;;;;6236798;23;20431;-82
2021/05/18 12:44:19;;;;;;;8.38;4.18;;;;;;;;;;6236403;23;20347;-84
2021/05/18 12:47:19;;;;;;;8.10;4.57;;;;;;;;;;6238830;23;20397;-84
2021/05/18 12:49:50;;;;;;;7.03;3.30;;;;;;;;;;6210929;23;20854;-83
2021/05/18 12:52:16;;;;;;;7.93;3.35;;;;;;;;;;6214223;23;20428;-87
2021/05/18 12:54:45;;;;;;;6.53;3.50;;;;;;;;;;6239786;23;20402;-83
2021/05/18 12:57:13;;;;;;;6.43;3.53;;;;;;;;;;6238960;23;20336;-83
2021/05/18 12:59:58;;;;;;;4.47;2.90;;;;;;;;;;6238991;23;20352;-82
2021/05/18 13:02:31;;;;;;;5.93;3.03;;;;;;;;;;6212262;23;20368;-85
2021/05/18 13:05:03;;;;;;;7.40;3.22;;;;;;;;;;6239310;23;20347;-83
2021/05/18 13:07:29;;;;;;;5.05;2.90;;;;;;;;;;6237646;23;20353;-88
2021/05/18 13:10:05;;;;;;;5.18;2.85;;;;;;;;;;6240095;23;20343;-83
2021/05/18 13:12:32;;;;;;;4.65;2.83;;;;;;;;;;6212460;23;20814;-85
2021/05/18 13:15:00;;;;;;;3.33;2.53;;;;;;;;;;6238742;23;20386;-85
2021/05/18 13:17:27;;;;;;;5.40;2.80;;;;;;;;;;6238891;23;20407;-85
2021/05/18 13:20:00;;;;;;;2.55;2.22;;;;;;;;;;6212096;23;20344;-85
2021/05/18 13:22:30;;;;;;;4.43;2.40;;;;;;;;;;6212608;23;21042;-84
2021/05/18 13:27:49;;;;;;;6.35;2.53;;;;;;;;;;6239393;23;20699;-85
2021/05/18 13:30:15;;;;;;;5.13;2.50;;;;;;;;;;6239261;23;20399;-87
2021/05/18 13:32:43;;;;;;;5.20;2.88;;;;;;;;;;6238549;23;20341;-83
2021/05/18 13:35:09;;;;;;;6.73;2.80;;;;;;;;;;6211329;23;20372;-84
2021/05/18 13:37:35;;;;;;;4.57;2.43;;;;;;;;;;6211682;23;20344;-85
2021/05/18 13:40:01;;;;;;;5.00;2.60;;;;;;;;;;6238883;23;20360;-84
2021/05/18 13:42:27;;;;;;;4.90;2.45;;;;;;;;;;6212127;23;20348;-85
2021/05/18 13:44:53;;;;;;;6.00;2.70;;;;;;;;;;6238919;23;20348;-87
2021/05/18 13:47:21;;;;;;;5.22;2.40;;;;;;;;;;6212416;23;20710;-81
2021/05/18 13:49:47;;;;;;;4.72;2.67;;;;;;;;;;6210931;23;20683;-85
2021/05/18 13:52:13;;;;;;;6.03;2.40;;;;;;;;;;6238631;23;20325;-87
2021/05/18 13:54:39;;;;;;;3.67;2.20;;;;;;;;;;6237114;23;20345;-83
2021/05/18 13:57:06;;;;;;;3.67;2.30;;;;;;;;;;6237063;23;20818;-82
2021/05/18 13:59:32;;;;;;;4.72;2.72;;;;;;;;;;6236616;22;20491;-81
2021/05/18 14:01:58;;;;;;;5.63;2.55;;;;;;;;;;6208772;23;20353;-81
2021/05/18 14:04:24;;;;;;;6.65;3.22;;;;;;;;;;6236129;23;20333;-82
2021/05/18 14:07:01;;;;;;;4.45;2.28;;;;;;;;;;6236357;23;20359;-79
2021/05/18 14:09:27;;;;;;;4.03;2.30;;;;;;;;;;6237161;23;20855;-79
2021/05/18 14:11:53;;;;;;;5.53;2.90;;;;;;;;;;6236313;23;20348;-80
2021/05/18 14:14:18;;;;;;;5.97;2.35;;;;;;;;;;6209755;23;20735;-81
2021/05/18 14:16:44;;;;;;;3.05;2.20;;;;;;;;;;6236278;23;20368;-80
2021/05/18 14:19:10;;;;;;;4.32;2.17;;;;;;;;;;6236733;23;20340;-80
2021/05/18 14:21:36;;;;;;;4.30;2.30;;;;;;;;;;6236985;23;20333;-81
2021/05/18 14:24:13;;;;;;;4.77;2.43;;;;;;;;;;6236039;23;20356;-79
2021/05/18 14:26:39;;;;;;;6.78;3.25;;;;;;;;;;6236602;23;20425;-80
2021/05/18 14:29:05;;;;;;;4.93;2.72;;;;;;;;;;6235669;23;20427;-80
2021/05/18 14:31:34;;;;;;;4.20;2.57;;;;;;;;;;6207987;23;21409;-81
2021/05/18 14:34:00;;;;;;;4.47;2.78;;;;;;;;;;6235628;23;20347;-81
2021/05/18 14:36:27;;;;;;;3.80;2.60;;;;;;;;;;6235389;23;20382;-82
2021/05/18 14:38:53;;;;;;;6.07;2.97;;;;;;;;;;6235503;23;20367;-81
2021/05/18 14:56:52;;;;;;;4.82;2.45;;;;;;;;;;6246617;23;20388;-81
2021/05/18 14:59:18;;;;;;;3.72;2.33;;;;;;;;;;6236501;22;20413;-83
2021/05/18 15:01:44;;;;;;;5.88;2.50;;;;;;;;;;6236686;23;20344;-80
2021/05/18 15:04:10;;;;;;;6.60;2.90;;;;;;;;;;6237293;23;20659;-81
2021/05/18 15:06:36;;;;;;;6.03;2.60;;;;;;;;;;6236519;23;20420;-83
2021/05/18 15:09:04;;;;;;;3.63;2.63;;;;;;;;;;6237893;23;20333;-82
2021/05/18 15:11:30;;;;;;;5.55;2.90;;;;;;;;;;6237080;23;20360;-81
2021/05/18 15:13:56;;;;;;;4.22;3.00;;;;;;;;;;6210952;23;20355;-81
2021/05/18 15:16:22;;;;;;;5.32;2.35;;;;;;;;;;6236786;23;20369;-84
2021/05/18 15:18:52;;;;;;;5.68;2.72;;;;;;;;;;6237398;23;20398;-82
2021/05/18 15:21:18;;;;;;;5.70;2.60;;;;;;;;;;6236340;23;20337;-81
2021/05/18 15:23:44;;;;;;;4.30;2.30;;;;;;;;;;6237499;23;20332;-82
2021/05/18 15:26:10;;;;;;;4.32;2.55;;;;;;;;;;6239060;23;20866;-82
2021/05/18 15:28:41;;;;;;;6.43;2.75;;;;;;;;;;6238079;23;20859;-80
2021/05/18 15:31:07;;;;;;;5.60;2.93;;;;;;;;;;6240041;23;20417;-85
2021/05/18 15:33:33;;;;;;;5.75;2.70;;;;;;;;;;6238253;23;20344;-81
2021/05/18 15:35:59;;;;;;;5.20;3.17;;;;;;;;;;6212422;23;20372;-87
2021/05/18 15:38:25;;;;;;;5.93;2.70;;;;;;;;;;6242785;23;20814;-84
2021/05/18 15:40:51;;;;;;;4.47;2.50;;;;;;;;;;6240635;23;20390;-80
2021/05/18 15:43:17;;;;;;;5.00;2.50;;;;;;;;;;6238238;23;20734;-81
2021/05/18 15:45:44;;;;;;;4.40;2.60;;;;;;;;;;6238285;23;20328;-82
2021/05/18 15:48:10;;;;;;;4.45;2.40;;;;;;;;;;6240885;23;20332;-83
2021/05/18 15:50:37;;;;;;;4.97;2.47;;;;;;;;;;6213095;23;20372;-85
2021/05/18 15:53:05;;;;;;;3.67;2.42;;;;;;;;;;6240699;23;20333;-86
2021/05/18 15:55:31;;;;;;;5.45;2.72;;;;;;;;;;6212877;23;20372;-82
2021/05/18 15:57:57;;;;;;;5.20;3.20;;;;;;;;;;6212959;23;20435;-84
2021/05/18 16:00:26;;;;;;;5.00;2.20;;;;;;;;;;6213296;23;20395;-86
2021/05/18 16:02:52;;;;;;;5.13;2.60;;;;;;;;;;6239483;23;20340;-80
2021/05/18 16:05:18;;;;;;;4.77;2.53;;;;;;;;;;6213202;23;20431;-80
2021/05/18 16:07:51;;;;;;;5.07;2.58;;;;;;;;;;6240243;23;20413;-81
2021/05/18 16:10:18;;;;;;;5.25;2.80;;;;;;;;;;6213720;23;20465;-77
2021/05/18 16:12:44;;;;;;;3.15;2.20;;;;;;;;;;6240766;23;20729;-81
2021/05/18 16:15:11;;;;;;;4.50;2.40;;;;;;;;;;6241268;23;20738;-82
2021/05/18 16:17:37;;;;;;;4.20;2.90;;;;;;;;;;6213673;23;20348;-81
2021/05/18 16:20:03;;;;;;;5.28;2.78;;;;;;;;;;6213601;23;20398;-83
2021/05/18 16:22:29;;;;;;;5.50;2.85;;;;;;;;;;6241267;23;20355;-85
2021/05/18 16:24:55;;;;;;;5.22;2.78;;;;;;;;;;6242753;23;20329;-80
2021/05/18 16:27:22;;;;;;;5.18;2.55;;;;;;;;;;6241345;23;20321;-82
2021/05/18 16:29:48;;;;;;;6.00;2.85;;;;;;;;;;6239487;23;20347;-77
2021/05/18 16:32:14;;;;;;;4.20;2.50;;;;;;;;;;6239573;23;20337;-80
2021/05/18 16:34:40;;;;;;;6.30;2.95;;;;;;;;;;6236525;23;20352;-86
2021/05/18 16:37:06;;;;;;;3.83;2.10;;;;;;;;;;6238287;23;20397;-77
2021/05/18 16:39:32;;;;;;;3.33;2.35;;;;;;;;;;6240043;23;20419;-82
2021/05/18 16:41:58;;;;;;;3.95;2.40;;;;;;;;;;6240071;23;20364;-81
2021/05/18 16:44:24;;;;;;;5.90;2.35;;;;;;;;;;6239598;23;20344;-84
2021/05/18 16:46:50;;;;;;;4.50;2.67;;;;;;;;;;6240299;23;20351;-84
2021/05/18 16:49:17;;;;;;;5.05;2.83;;;;;;;;;;6213836;23;20783;-81
2021/05/18 16:51:43;;;;;;;4.70;3.15;;;;;;;;;;6239351;23;20340;-82
2021/05/18 16:54:11;;;;;;;6.00;3.00;;;;;;;;;;6241751;23;20356;-82
2021/05/18 16:56:38;;;;;;;6.45;3.40;;;;;;;;;;6236892;23;20691;-80
2021/05/18 16:59:04;;;;;;;4.15;2.70;;;;;;;;;;6236726;23;20352;-83
2021/05/18 17:01:30;;;;;;;4.55;3.15;;;;;;;;;;6239723;23;20333;-84
2021/05/18 17:03:57;;;;;;;4.43;2.97;;;;;;;;;;6211937;23;20933;-81
2021/05/18 17:06:23;;;;;;;4.90;2.80;;;;;;;;;;6237327;23;20355;-79
2021/05/18 17:08:49;;;;;;;4.53;3.20;;;;;;;;;;6236751;23;20345;-81
2021/05/18 17:11:15;;;;;;;3.13;2.67;;;;;;;;;;6236231;23;20370;-82
2021/05/18 17:13:41;;;;;;;5.38;2.80;;;;;;;;;;6209455;23;20349;-81
2021/05/18 17:16:07;;;;;;;3.10;2.50;;;;;;;;;;6236166;23;20565;-79
2021/05/18 17:18:34;;;;;;;3.38;2.47;;;;;;;;;;6236585;23;20402;-78
2021/05/18 17:21:00;;;;;;;4.30;2.80;;;;;;;;;;6209777;23;20707;-79
2021/05/18 17:23:26;;;;;;;4.83;3.00;;;;;;;;;;6236389;23;20347;-80
2021/05/18 17:25:52;;;;;;;3.93;2.90;;;;;;;;;;6209771;23;20350;-78
2021/05/18 17:28:18;;;;;;;5.17;2.77;;;;;;;;;;6236103;23;20697;-81
2021/05/18 17:30:44;;;;;;;4.97;2.80;;;;;;;;;;6237786;23;20458;-86
2021/05/18 17:33:12;;;;;;;5.33;2.90;;;;;;;;;;6238790;23;20347;-81
2021/05/18 17:35:38;;;;;;;5.00;2.80;;;;;;;;;;6237831;23;20399;-83
2021/05/18 17:38:04;;;;;;;3.58;2.53;;;;;;;;;;6238306;23;20703;-83
2021/05/18 17:40:30;;;;;;;4.75;3.13;;;;;;;;;;6241662;23;20459;-83
2021/05/18 17:42:57;;;;;;;4.70;3.00;;;;;;;;;;6237581;23;20362;-87
2021/05/18 17:45:23;;;;;;;5.88;3.05;;;;;;;;;;6211587;23;20664;-84
2021/05/18 17:47:49;;;;;;;6.40;3.30;;;;;;;;;;6237216;23;20652;-84
2021/05/18 17:50:16;;;;;;;5.07;3.10;;;;;;;;;;6210842;23;20375;-83
2021/05/18 17:52:43;;;;;;;5.45;3.20;;;;;;;;;;6238603;23;20394;-82
2021/05/18 17:55:10;;;;;;;5.78;3.13;;;;;;;;;;6210470;23;20376;-81
2021/05/18 17:57:36;;;;;;;3.77;2.70;;;;;;;;;;6236570;23;20359;-82
2021/05/18 18:00:03;;;;;;;5.67;3.07;;;;;;;;;;6208592;23;20364;-81
2021/05/18 18:02:29;;;;;;;5.13;2.83;;;;;;;;;;6210742;23;20865;-82
2021/05/18 18:04:56;;;;;;;3.90;2.80;;;;;;;;;;6236245;23;20861;-83
2021/05/18 18:07:22;;;;;;;4.88;3.17;;;;;;;;;;6235124;23;20837;-82
2021/05/18 18:09:48;;;;;;;4.72;3.05;;;;;;;;;;6209881;23;20340;-84
2021/05/18 18:12:14;;;;;;;4.78;3.33;;;;;;;;;;6236746;23;20332;-83
2021/05/18 18:14:42;;;;;;;4.80;3.25;;;;;;;;;;6236763;23;20325;-84
2021/05/18 18:17:18;;;;;;;4.07;3.00;;;;;;;;;;6210387;23;20892;-86
2021/05/18 18:19:44;;;;;;;5.63;3.40;;;;;;;;;;6237088;23;20344;-84
2021/05/18 18:22:12;;;;;;;6.78;3.22;;;;;;;;;;6236966;23;20343;-85
2021/05/18 18:24:38;;;;;;;4.43;3.10;;;;;;;;;;6237800;23;20362;-87
2021/05/18 18:27:06;;;;;;;5.50;2.80;;;;;;;;;;6237790;23;20424;-85
2021/05/18 18:29:32;;;;;;;5.60;3.17;;;;;;;;;;6211047;23;20352;-84
2021/05/18 18:31:58;;;;;;;5.30;3.33;;;;;;;;;;6238216;23;20340;-82
2021/05/18 18:34:24;;;;;;;6.47;3.92;;;;;;;;;;6211566;23;20405;-86
2021/05/18 18:36:50;;;;;;;6.18;3.40;;;;;;;;;;6238246;23;20463;-86
2021/05/18 18:39:16;;;;;;;4.05;3.00;;;;;;;;;;6237142;23;20340;-85
2021/05/18 18:41:43;;;;;;;4.68;3.10;;;;;;;;;;6211563;23;20356;-85
2021/05/18 18:44:09;;;;;;;5.32;3.50;;;;;;;;;;6237584;23;20340;-87
2021/05/18 18:46:37;;;;;;;3.90;3.00;;;;;;;;;;6238734;23;20842;-83
2021/05/18 18:49:04;;;;;;;5.57;3.40;;;;;;;;;;6239461;23;20423;-83
2021/05/18 18:51:33;;;;;;;4.22;3.10;;;;;;;;;;6238407;23;20811;-83
2021/05/18 18:54:04;;;;;;;6.53;3.40;;;;;;;;;;6211413;23;20344;-85
2021/05/18 18:56:30;;;;;;;5.93;3.30;;;;;;;;;;6211854;23;20425;-84
2021/05/18 18:58:57;;;;;;;6.68;3.95;;;;;;;;;;6214583;23;20675;-83
2021/05/18 19:01:29;;;;;;;6.47;3.65;;;;;;;;;;6241577;23;20332;-84
2021/05/18 19:04:02;;;;;;;6.30;4.18;;;;;;;;;;6214742;23;20367;-83
2021/05/18 19:06:51;;;;;;;5.53;4.35;;;;;;;;;;6213228;23;20818;-80
2021/05/18 19:14:12;;;;;;;5.43;4.43;;;;;;;;;;6255937;23;20358;-84
2021/05/18 19:16:41;;;;;;;5.75;4.35;;;;;;;;;;6250549;23;20368;-78
2021/05/18 19:19:08;;;;;;;6.40;4.43;;;;;;;;;;6252279;23;20423;-79
2021/05/18 19:21:34;;;;;;;5.40;4.50;;;;;;;;;;6253250;23;20340;-78
2021/05/18 19:24:00;;;;;;;7.57;4.82;;;;;;;;;;6251291;23;20351;-78
2021/05/18 19:26:26;;;;;;;7.07;4.55;;;;;;;;;;6246464;23;20361;-84
2021/05/18 19:28:52;;;;;;;6.90;4.97;;;;;;;;;;6241865;23;20894;-81
2021/05/18 19:31:18;;;;;;;7.80;5.10;;;;;;;;;;6241632;23;20344;-82
2021/05/18 19:33:49;;;;;;;7.50;4.90;;;;;;;;;;6241789;23;20340;-81
2021/05/18 19:36:32;;;;;;;6.07;4.93;;;;;;;;;;6241635;23;20841;-83
2021/05/18 19:42:13;;;;;;;6.13;4.90;;;;;;;;;;6241354;23;20363;-80
2021/05/18 19:44:51;;;;;;;6.88;5.20;;;;;;;;;;6239646;23;20432;-81
2021/05/18 19:52:27;;;;;;;7.95;5.65;;;;;;;;;;6251010;23;20351;-85
2021/05/18 19:54:54;;;;;;;8.10;5.72;;;;;;;;;;6214032;23;20834;-81
2021/05/18 19:57:34;;;;;;;9.70;5.82;;;;;;;;;;6214511;23;20427;-82
2021/05/18 20:16:39;;;;;;;6.50;5.90;;;;;;;;;;6237091;23;20387;-84
2021/05/18 20:21:57;;;;;;;8.15;5.70;;;;;;;;;;6240091;23;20719;-83